createdAt,value
2018-09-15T00:01:12.524Z,14.20
2018-09-15T00:03:42.644Z,14.30
2018-09-15T00:06:12.728Z,14.30
2018-09-15T00:08:42.920Z,14.30
2018-09-15T00:11:12.978Z,14.20
2018-09-15T00:13:43.065Z,14.30
2018-09-15T00:16:13.197Z,14.30
2018-09-15T00:18:43.285Z,14.20
2018-09-15T00:21:13.352Z,14.20
2018-09-15T00:23:43.422Z,14.20
2018-09-15T00:26:13.492Z,14.20
2018-09-15T00:28:43.601Z,14.20
2018-09-15T00:31:13.675Z,14.20
2018-09-15T00:33:43.841Z,14.20
2018-09-15T00:36:13.906Z,14.20
2018-09-15T00:38:43.974Z,14.20
2018-09-15T00:41:14.042Z,14.20
2018-09-15T00:43:44.105Z,14.10
2018-09-15T00:46:14.203Z,14.20
2018-09-15T00:48:44.286Z,14.10
2018-09-15T00:51:14.368Z,14.10
2018-09-15T00:53:44.416Z,14.10
2018-09-15T00:56:14.512Z,14.10
2018-09-15T00:58:44.668Z,14.10
2018-09-15T01:01:14.743Z,14.10
2018-09-15T01:03:45.045Z,14.10
2018-09-15T01:06:15.165Z,14.10
2018-09-15T01:08:45.241Z,14.10
2018-09-15T01:11:15.292Z,14.10
2018-09-15T01:13:45.344Z,14.10
2018-09-15T01:16:15.409Z,14.10
2018-09-15T01:18:45.536Z,14.10
2018-09-15T01:21:15.600Z,14.10
2018-09-15T01:23:45.724Z,14.10
2018-09-15T01:26:15.818Z,14.10
2018-09-15T01:28:49.623Z,14.10
2018-09-15T01:31:21.676Z,14.10
2018-09-15T01:33:52.656Z,14.20
2018-09-15T01:36:23.468Z,14.10
2018-09-15T01:38:53.532Z,14.10
2018-09-15T01:41:23.580Z,14.10
2018-09-15T01:43:53.632Z,14.00
2018-09-15T01:46:23.692Z,14.10
2018-09-15T01:48:53.754Z,14.10
2018-09-15T01:51:23.843Z,14.10
2018-09-15T01:53:53.908Z,14.10
2018-09-15T01:56:23.971Z,14.00
2018-09-15T01:58:54.079Z,14.00
2018-09-15T02:01:24.125Z,14.00
2018-09-15T02:03:54.221Z,14.00
2018-09-15T02:06:24.312Z,14.00
2018-09-15T02:08:54.404Z,14.00
2018-09-15T02:11:24.464Z,14.00
2018-09-15T02:13:54.544Z,14.00
2018-09-15T02:16:24.628Z,14.00
2018-09-15T02:18:54.693Z,14.00
2018-09-15T02:21:24.776Z,14.00
2018-09-15T02:23:54.761Z,14.00
2018-09-15T02:26:24.836Z,14.00
2018-09-15T02:28:54.947Z,14.00
2018-09-15T02:31:25.064Z,14.00
2018-09-15T02:33:55.129Z,14.00
2018-09-15T02:36:25.442Z,14.00
2018-09-15T02:38:55.500Z,14.00
2018-09-15T02:41:26.436Z,14.00
2018-09-15T02:43:56.509Z,14.00
2018-09-15T02:46:26.580Z,14.00
2018-09-15T02:48:56.613Z,14.00
2018-09-15T02:51:26.704Z,14.00
2018-09-15T02:53:56.741Z,14.00
2018-09-15T02:56:26.728Z,14.00
2018-09-15T02:58:56.768Z,14.10
2018-09-15T03:01:26.885Z,14.10
2018-09-15T03:03:56.932Z,14.00
2018-09-15T03:06:27.049Z,14.00
2018-09-15T03:08:57.136Z,14.00
2018-09-15T03:11:27.281Z,14.00
2018-09-15T03:13:57.353Z,14.10
2018-09-15T03:16:27.470Z,14.00
2018-09-15T03:18:57.504Z,14.00
2018-09-15T03:21:27.574Z,14.10
2018-09-15T03:23:57.656Z,14.10
2018-09-15T03:26:27.690Z,14.10
2018-09-15T03:28:57.754Z,14.00
2018-09-15T03:31:28.573Z,14.00
2018-09-15T03:33:58.654Z,14.00
2018-09-15T03:36:28.737Z,14.00
2018-09-15T03:38:58.843Z,14.00
2018-09-15T03:41:28.967Z,14.00
2018-09-15T03:43:59.018Z,14.00
2018-09-15T03:46:29.111Z,14.00
2018-09-15T03:48:59.304Z,14.00
2018-09-15T03:51:29.412Z,14.00
2018-09-15T03:53:59.521Z,14.10
2018-09-15T03:56:29.619Z,14.10
2018-09-15T03:58:59.820Z,14.00
2018-09-15T04:01:29.934Z,14.10
2018-09-15T04:04:00.124Z,14.10
2018-09-15T04:06:30.206Z,14.10
2018-09-15T04:09:00.316Z,14.10
2018-09-15T04:11:30.410Z,14.10
2018-09-15T04:14:00.540Z,14.10
2018-09-15T04:16:30.633Z,14.10
2018-09-15T04:19:00.805Z,14.10
2018-09-15T04:21:30.924Z,14.10
2018-09-15T04:24:01.078Z,14.10
2018-09-15T04:26:31.172Z,14.00
2018-09-15T04:29:01.257Z,14.00
2018-09-15T04:31:31.394Z,14.00
2018-09-15T04:34:01.536Z,14.00
2018-09-15T04:36:31.792Z,14.00
2018-09-15T04:39:01.830Z,14.00
2018-09-15T04:41:32.058Z,14.00
2018-09-15T04:44:02.161Z,13.90
2018-09-15T04:46:32.329Z,14.00
2018-09-15T04:49:02.473Z,13.90
2018-09-15T04:51:32.595Z,13.90
2018-09-15T04:54:02.712Z,13.90
2018-09-15T04:56:32.860Z,13.90
2018-09-15T04:59:03.336Z,13.90
2018-09-15T05:01:33.498Z,13.90
2018-09-15T05:04:03.650Z,13.90
2018-09-15T05:06:33.816Z,13.90
2018-09-15T05:09:05.149Z,13.90
2018-09-15T05:11:35.252Z,13.90
2018-09-15T05:14:05.561Z,13.90
2018-09-15T05:16:35.798Z,13.90
2018-09-15T05:19:05.945Z,13.90
2018-09-15T05:21:36.046Z,13.90
2018-09-15T05:24:06.426Z,14.00
2018-09-15T05:26:36.572Z,13.90
2018-09-15T05:29:06.742Z,14.00
2018-09-15T05:31:36.933Z,14.00
2018-09-15T05:34:07.016Z,13.90
2018-09-15T05:36:37.288Z,14.00
2018-09-15T05:39:09.633Z,14.00
2018-09-15T05:41:39.774Z,14.00
2018-09-15T05:44:10.084Z,14.00
2018-09-15T05:46:40.190Z,14.00
2018-09-15T05:49:10.308Z,13.90
2018-09-15T05:51:40.452Z,13.90
2018-09-15T05:54:10.523Z,13.80
2018-09-15T05:56:40.665Z,13.80
2018-09-15T05:59:10.780Z,13.80
2018-09-15T06:01:40.972Z,13.80
2018-09-15T06:04:11.029Z,13.80
2018-09-15T06:06:41.117Z,13.80
2018-09-15T06:09:12.308Z,13.80
2018-09-15T06:11:42.952Z,13.70
2018-09-15T06:14:13.108Z,13.70
2018-09-15T06:16:43.262Z,13.70
2018-09-15T06:19:13.424Z,13.70
2018-09-15T06:21:43.636Z,13.70
2018-09-15T06:24:13.761Z,13.70
2018-09-15T06:26:43.859Z,13.70
2018-09-15T06:29:14.046Z,13.70
2018-09-15T06:31:44.476Z,13.70
2018-09-15T06:34:14.668Z,13.70
2018-09-15T06:36:44.800Z,13.70
2018-09-15T06:39:14.868Z,13.70
2018-09-15T06:41:45.063Z,13.60
2018-09-15T06:44:15.208Z,13.60
2018-09-15T06:46:45.296Z,13.70
2018-09-15T06:49:15.516Z,13.60
2018-09-15T06:51:45.694Z,13.60
2018-09-15T06:54:15.832Z,13.60
2018-09-15T06:56:45.976Z,13.60
2018-09-15T06:59:16.097Z,13.60
2018-09-15T07:01:46.308Z,13.60
2018-09-15T07:04:16.424Z,13.60
2018-09-15T07:06:46.533Z,13.60
2018-09-15T07:09:16.621Z,13.60
2018-09-15T07:11:46.716Z,13.60
2018-09-15T07:14:16.795Z,13.60
2018-09-15T07:16:46.929Z,13.60
2018-09-15T07:19:17.036Z,13.60
2018-09-15T07:21:47.173Z,13.60
2018-09-15T07:24:17.290Z,13.60
2018-09-15T07:26:47.476Z,13.60
2018-09-15T07:29:17.616Z,13.60
2018-09-15T07:31:47.857Z,13.70
2018-09-15T07:34:17.929Z,13.60
2018-09-15T07:36:48.048Z,13.70
2018-09-15T07:39:18.308Z,13.70
2018-09-15T07:41:48.445Z,13.70
2018-09-15T07:44:18.550Z,13.70
2018-09-15T07:46:48.716Z,13.80
2018-09-15T07:49:18.852Z,13.80
2018-09-15T07:51:49.028Z,13.80
2018-09-15T07:54:19.174Z,13.80
2018-09-15T07:56:49.491Z,13.80
2018-09-15T07:59:19.600Z,13.80
2018-09-15T08:01:49.737Z,13.90
2018-09-15T08:04:19.853Z,14.00
2018-09-15T08:06:49.984Z,14.00
2018-09-15T08:09:20.148Z,14.00
2018-09-15T08:11:50.260Z,14.00
2018-09-15T08:14:20.414Z,14.10
2018-09-15T08:16:50.585Z,14.10
2018-09-15T08:19:20.676Z,14.10
2018-09-15T08:21:51.072Z,14.20
2018-09-15T08:24:21.196Z,14.20
2018-09-15T08:26:51.360Z,14.20
2018-09-15T08:29:21.561Z,14.30
2018-09-15T08:31:51.770Z,14.40
2018-09-15T08:34:21.933Z,14.50
2018-09-15T08:36:52.128Z,14.50
2018-09-15T08:39:22.232Z,14.60
2018-09-15T08:41:52.388Z,14.70
2018-09-15T08:44:22.512Z,14.70
2018-09-15T08:46:52.644Z,14.80
2018-09-15T08:49:22.716Z,14.90
2018-09-15T08:51:52.848Z,14.80
2018-09-15T08:54:22.944Z,14.80
2018-09-15T08:56:53.088Z,14.80
2018-09-15T08:59:23.222Z,14.80
2018-09-15T09:01:53.359Z,14.80
2018-09-15T09:04:23.440Z,14.80
2018-09-15T09:06:53.512Z,14.80
2018-09-15T09:09:23.652Z,14.90
2018-09-15T09:11:53.777Z,15.00
2018-09-15T09:14:23.924Z,15.10
2018-09-15T09:16:54.069Z,15.30
2018-09-15T09:19:24.209Z,15.50
2018-09-15T09:21:54.352Z,15.60
2018-09-15T09:24:24.662Z,15.60
2018-09-15T09:26:54.692Z,15.60
2018-09-15T09:29:24.783Z,15.50
2018-09-15T09:31:54.900Z,15.50
2018-09-15T09:34:25.065Z,15.50
2018-09-15T09:36:55.176Z,15.60
2018-09-15T09:39:25.472Z,15.70
2018-09-15T09:41:55.585Z,15.60
2018-09-15T09:44:25.760Z,15.70
2018-09-15T09:46:55.857Z,15.70
2018-09-15T09:49:26.044Z,15.70
2018-09-15T09:51:56.176Z,15.70
2018-09-15T09:54:26.278Z,15.70
2018-09-15T09:56:56.401Z,15.70
2018-09-15T09:59:26.464Z,15.80
2018-09-15T10:02:03.018Z,15.90
2018-09-15T10:04:33.114Z,16.00
2018-09-15T10:07:03.245Z,16.00
2018-09-15T10:09:33.341Z,16.00
2018-09-15T10:12:03.465Z,16.00
2018-09-15T10:14:33.600Z,16.20
2018-09-15T10:17:03.732Z,16.30
2018-09-15T10:19:33.826Z,16.60
2018-09-15T10:22:04.062Z,16.80
2018-09-15T10:24:34.276Z,16.90
2018-09-15T10:27:04.472Z,17.10
2018-09-15T10:29:34.692Z,17.30
2018-09-15T10:32:04.862Z,17.40
2018-09-15T10:34:34.924Z,17.40
2018-09-15T10:37:05.128Z,17.60
2018-09-15T10:39:35.236Z,17.70
2018-09-15T10:42:05.349Z,17.70
2018-09-15T10:44:35.428Z,17.70
2018-09-15T10:47:05.687Z,17.30
2018-09-15T10:49:35.793Z,17.40
2018-09-15T10:52:05.918Z,17.50
2018-09-15T10:57:15.048Z,17.60
2018-09-15T10:59:45.174Z,17.70
2018-09-15T11:02:15.652Z,17.70
2018-09-15T11:04:46.770Z,17.60
2018-09-15T11:07:16.889Z,17.60
2018-09-15T11:09:46.972Z,17.70
2018-09-15T11:12:17.112Z,17.70
2018-09-15T11:14:47.217Z,17.80
2018-09-15T11:17:17.333Z,17.70
2018-09-15T11:19:47.424Z,17.70
2018-09-15T11:22:17.575Z,17.50
2018-09-15T11:24:47.712Z,17.50
2018-09-15T11:27:17.880Z,17.40
2018-09-15T11:29:48.005Z,17.30
2018-09-15T11:32:18.264Z,17.40
2018-09-15T11:34:48.384Z,17.60
2018-09-15T11:37:18.545Z,17.90
2018-09-15T11:39:48.668Z,18.20
2018-09-15T11:42:18.779Z,18.40
2018-09-15T11:44:49.752Z,18.80
2018-09-15T11:47:20.064Z,19.00
2018-09-15T11:49:50.210Z,18.80
2018-09-15T11:52:20.341Z,18.50
2018-09-15T11:54:50.520Z,18.60
2018-09-15T11:57:20.708Z,18.70
2018-09-15T11:59:50.858Z,18.80
2018-09-15T12:02:24.996Z,19.00
2018-09-15T12:04:55.361Z,19.10
2018-09-15T12:07:25.982Z,19.20
2018-09-15T12:09:56.488Z,19.30
2018-09-15T12:12:26.756Z,19.20
2018-09-15T12:14:56.844Z,19.30
2018-09-15T12:17:26.973Z,19.40
2018-09-15T12:19:57.110Z,19.40
2018-09-15T12:22:27.234Z,19.50
2018-09-15T12:24:57.357Z,19.70
2018-09-15T12:27:27.444Z,19.70
2018-09-15T12:29:57.614Z,19.70
2018-09-15T12:32:27.745Z,19.70
2018-09-15T12:34:57.868Z,19.80
2018-09-15T12:37:27.988Z,19.90
2018-09-15T12:39:58.124Z,19.70
2018-09-15T12:42:28.216Z,19.70
2018-09-15T12:44:58.406Z,19.80
2018-09-15T12:47:28.502Z,19.80
2018-09-15T12:49:58.618Z,19.50
2018-09-15T12:52:28.757Z,19.10
2018-09-15T12:54:58.895Z,18.80
2018-09-15T12:57:28.984Z,18.50
2018-09-15T12:59:59.157Z,18.30
2018-09-15T13:02:29.266Z,18.20
2018-09-15T13:04:59.418Z,18.10
2018-09-15T13:07:29.524Z,18.00
2018-09-15T13:09:59.766Z,17.70
2018-09-15T13:12:29.900Z,17.40
2018-09-15T13:15:00.016Z,17.30
2018-09-15T13:17:30.176Z,17.40
2018-09-15T13:20:00.326Z,17.40
2018-09-15T13:22:30.441Z,17.60
2018-09-15T13:25:00.609Z,17.80
2018-09-15T13:27:30.727Z,17.90
2018-09-15T13:30:00.948Z,17.90
2018-09-15T13:32:31.026Z,18.00
2018-09-15T13:35:01.123Z,18.10
2018-09-15T13:37:31.208Z,18.00
2018-09-15T13:40:01.352Z,18.00
2018-09-15T13:42:31.463Z,17.90
2018-09-15T13:45:01.580Z,18.00
2018-09-15T13:47:31.751Z,18.10
2018-09-15T13:50:01.887Z,18.20
2018-09-15T13:52:32.117Z,18.40
2018-09-15T13:55:02.244Z,18.40
2018-09-15T13:57:32.472Z,18.50
2018-09-15T14:00:02.589Z,18.50
2018-09-15T14:02:36.240Z,18.30
2018-09-15T14:05:06.465Z,18.20
2018-09-15T14:07:36.593Z,18.40
2018-09-15T14:10:07.302Z,18.40
2018-09-15T14:12:37.078Z,18.50
2018-09-15T14:15:07.401Z,18.60
2018-09-15T14:17:37.520Z,18.60
2018-09-15T14:20:07.692Z,18.80
2018-09-15T14:22:37.806Z,18.80
2018-09-15T14:25:07.907Z,18.80
2018-09-15T14:27:38.004Z,18.70
2018-09-15T14:30:08.172Z,18.80
2018-09-15T14:32:38.300Z,18.90
2018-09-15T14:35:08.453Z,18.90
2018-09-15T14:37:38.600Z,18.90
2018-09-15T14:40:08.760Z,18.90
2018-09-15T14:42:38.873Z,18.90
2018-09-15T14:45:09.045Z,18.70
2018-09-15T14:47:39.176Z,18.70
2018-09-15T14:50:09.326Z,18.70
2018-09-15T14:52:39.381Z,18.50
2018-09-15T14:55:09.561Z,18.30
2018-09-15T14:57:39.709Z,18.00
2018-09-15T15:00:10.152Z,17.90
2018-09-15T15:02:40.444Z,17.90
2018-09-15T15:05:10.537Z,17.90
2018-09-15T15:07:40.742Z,17.90
2018-09-15T15:10:10.788Z,17.90
2018-09-15T15:12:40.929Z,17.80
2018-09-15T15:15:11.109Z,17.80
2018-09-15T15:17:41.252Z,17.70
2018-09-15T15:20:11.393Z,17.70
2018-09-15T15:22:41.549Z,17.70
2018-09-15T15:25:11.700Z,17.60
2018-09-15T15:27:41.848Z,17.60
2018-09-15T15:30:12.113Z,17.50
2018-09-15T15:32:42.302Z,17.30
2018-09-15T15:35:12.412Z,17.20
2018-09-15T15:37:42.614Z,17.10
2018-09-15T15:40:12.684Z,17.10
2018-09-15T15:42:42.794Z,17.00
2018-09-15T15:45:12.925Z,17.00
2018-09-15T15:47:43.017Z,16.90
2018-09-15T15:50:13.136Z,16.80
2018-09-15T15:52:43.212Z,16.80
2018-09-15T15:55:13.296Z,16.80
2018-09-15T15:57:43.400Z,16.80
2018-09-15T16:00:13.480Z,16.80
2018-09-15T16:02:43.564Z,16.70
2018-09-15T16:05:13.730Z,16.70
2018-09-15T16:07:43.910Z,16.70
2018-09-15T16:10:14.004Z,16.70
2018-09-15T16:12:44.104Z,16.60
2018-09-15T16:15:14.232Z,16.50
2018-09-15T16:17:44.317Z,16.50
2018-09-15T16:20:14.398Z,16.40
2018-09-15T16:22:44.532Z,16.30
2018-09-15T16:25:14.640Z,16.30
2018-09-15T16:27:44.764Z,16.20
2018-09-15T16:30:14.884Z,16.20
2018-09-15T16:32:45.011Z,16.10
2018-09-15T16:35:15.152Z,16.10
2018-09-15T16:37:45.217Z,16.10
2018-09-15T16:40:15.326Z,16.00
2018-09-15T16:42:45.432Z,16.10
2018-09-15T16:45:15.528Z,16.00
2018-09-15T16:47:45.629Z,15.90
2018-09-15T16:50:15.780Z,15.90
2018-09-15T16:52:45.904Z,15.90
2018-09-15T16:55:16.039Z,15.80
2018-09-15T16:57:46.168Z,15.80
2018-09-15T17:00:16.248Z,15.80
2018-09-15T17:02:46.382Z,15.70
2018-09-15T17:05:16.472Z,15.70
2018-09-15T17:07:46.623Z,15.60
2018-09-15T17:10:16.845Z,15.50
2018-09-15T17:12:46.973Z,15.50
2018-09-15T17:15:17.040Z,15.40
2018-09-15T17:17:47.112Z,15.40
2018-09-15T17:20:17.244Z,15.40
2018-09-15T17:22:47.490Z,15.40
2018-09-15T17:25:17.576Z,15.30
2018-09-15T17:27:47.676Z,15.20
2018-09-15T17:30:17.856Z,15.20
2018-09-15T17:32:47.939Z,15.20
2018-09-15T17:35:18.036Z,15.20
2018-09-15T17:37:48.093Z,15.10
2018-09-15T17:40:18.198Z,15.10
2018-09-15T17:42:48.292Z,15.00
2018-09-15T17:45:18.405Z,15.00
2018-09-15T17:47:48.508Z,15.00
2018-09-15T17:50:18.580Z,15.00
2018-09-15T17:52:48.670Z,14.90
2018-09-15T17:55:18.761Z,14.90
2018-09-15T17:57:48.844Z,14.80
2018-09-15T18:00:18.924Z,14.80
2018-09-15T18:02:48.905Z,14.80
2018-09-15T18:05:18.932Z,14.70
2018-09-15T18:07:49.056Z,14.70
2018-09-15T18:10:19.128Z,14.70
2018-09-15T18:12:49.256Z,14.70
2018-09-15T18:15:19.328Z,14.60
2018-09-15T18:17:49.416Z,14.60
2018-09-15T18:20:19.472Z,14.60
2018-09-15T18:22:49.534Z,14.50
2018-09-15T18:25:19.620Z,14.50
2018-09-15T18:27:49.770Z,14.50
2018-09-15T18:30:19.940Z,14.40
2018-09-15T18:32:49.992Z,14.40
2018-09-15T18:35:20.093Z,14.30
2018-09-15T18:37:50.152Z,14.30
2018-09-15T18:40:20.332Z,14.30
2018-09-15T18:42:50.402Z,14.30
2018-09-15T18:45:20.408Z,14.30
2018-09-15T18:47:50.480Z,14.20
2018-09-15T18:50:20.584Z,14.20
2018-09-15T18:52:50.636Z,14.20
2018-09-15T18:55:20.724Z,14.20
2018-09-15T18:57:50.840Z,14.10
2018-09-15T19:00:20.923Z,14.10
2018-09-15T19:02:51.041Z,14.10
2018-09-15T19:05:21.090Z,14.00
2018-09-15T19:07:51.223Z,14.00
2018-09-15T19:10:21.252Z,14.00
2018-09-15T19:12:51.305Z,13.90
2018-09-15T19:15:21.377Z,13.90
2018-09-15T19:17:51.633Z,13.90
2018-09-15T19:20:21.710Z,13.90
2018-09-15T19:22:51.781Z,13.90
2018-09-15T19:25:21.836Z,13.90
2018-09-15T19:27:51.960Z,13.90
2018-09-15T19:30:22.194Z,13.90
2018-09-15T19:32:52.341Z,13.90
2018-09-15T19:35:22.424Z,13.80
2018-09-15T19:37:52.524Z,13.80
2018-09-15T19:40:22.604Z,13.80
2018-09-15T19:42:52.730Z,13.80
2018-09-15T19:45:22.711Z,13.80
2018-09-15T19:47:53.084Z,13.70
2018-09-15T19:50:23.136Z,13.70
2018-09-15T19:52:53.245Z,13.70
2018-09-15T19:55:23.316Z,13.60
2018-09-15T19:57:53.404Z,13.70
2018-09-15T20:00:23.524Z,13.60
2018-09-15T20:02:53.596Z,13.60
2018-09-15T20:05:23.674Z,13.50
2018-09-15T20:07:53.812Z,13.40
2018-09-15T20:10:23.894Z,13.40
2018-09-15T20:12:54.001Z,13.40
2018-09-15T20:15:28.240Z,13.30
2018-09-15T20:17:57.541Z,13.30
2018-09-15T20:20:26.406Z,13.30
2018-09-15T20:22:56.681Z,13.20
2018-09-15T20:25:26.748Z,13.20
2018-09-15T20:27:56.802Z,13.20
2018-09-15T20:30:26.882Z,13.20
2018-09-15T20:32:57.003Z,13.20
2018-09-15T20:35:27.064Z,13.10
2018-09-15T20:37:57.140Z,13.00
2018-09-15T20:40:27.321Z,13.00
2018-09-15T20:42:57.413Z,13.10
2018-09-15T20:45:27.458Z,13.10
2018-09-15T20:47:57.520Z,13.10
2018-09-15T20:50:27.594Z,13.10
2018-09-15T20:52:57.668Z,13.00
2018-09-15T20:55:27.744Z,13.00
2018-09-15T20:57:57.856Z,13.00
2018-09-15T21:00:27.876Z,12.90
2018-09-15T21:02:57.956Z,13.00
2018-09-15T21:05:28.036Z,12.90
2018-09-15T21:07:58.110Z,12.90
2018-09-15T21:10:28.200Z,12.90
2018-09-15T21:12:58.256Z,12.90
2018-09-15T21:15:28.348Z,12.90
2018-09-15T21:17:58.381Z,12.90
2018-09-15T21:20:28.464Z,12.90
2018-09-15T21:22:58.508Z,12.80
2018-09-15T21:25:28.589Z,12.90
2018-09-15T21:27:58.648Z,12.90
2018-09-15T21:30:28.876Z,12.80
2018-09-15T21:32:58.944Z,12.80
2018-09-15T21:35:29.032Z,12.80
2018-09-15T21:37:59.905Z,12.80
2018-09-15T21:40:29.968Z,12.80
2018-09-15T21:43:00.080Z,12.80
2018-09-15T21:45:30.153Z,12.70
2018-09-15T21:48:00.228Z,12.70
2018-09-15T21:50:30.340Z,12.60
2018-09-15T21:53:00.429Z,12.60
2018-09-15T21:55:30.724Z,12.60
2018-09-15T21:58:00.812Z,12.60
2018-09-15T22:00:30.941Z,12.60
2018-09-15T22:03:01.072Z,12.50
2018-09-15T22:05:31.145Z,12.40
2018-09-15T22:08:01.204Z,12.50
2018-09-15T22:10:31.296Z,12.50
2018-09-15T22:13:01.412Z,12.40
2018-09-15T22:15:31.504Z,12.40
2018-09-15T22:18:01.574Z,12.30
2018-09-15T22:20:31.665Z,12.30
2018-09-15T22:23:01.720Z,12.30
2018-09-15T22:25:31.936Z,12.30
2018-09-15T22:28:01.964Z,12.30
2018-09-15T22:30:32.063Z,12.20
2018-09-15T22:33:02.136Z,12.20
2018-09-15T22:35:32.200Z,12.20
2018-09-15T22:38:02.251Z,12.20
2018-09-15T22:40:32.336Z,12.20
2018-09-15T22:43:02.416Z,12.20
2018-09-15T22:45:32.464Z,12.10
2018-09-15T22:48:02.535Z,12.10
2018-09-15T22:50:32.596Z,12.00
2018-09-15T22:53:02.680Z,12.00
2018-09-15T22:55:32.724Z,12.10
2018-09-15T22:58:02.784Z,12.10
2018-09-15T23:00:32.913Z,12.00
2018-09-15T23:03:03.128Z,12.00
2018-09-15T23:05:33.204Z,12.00
2018-09-15T23:08:03.440Z,11.90
2018-09-15T23:10:33.512Z,11.90
2018-09-15T23:13:03.608Z,11.90
2018-09-15T23:15:33.656Z,11.90
2018-09-15T23:18:03.774Z,11.80
2018-09-15T23:20:33.839Z,11.90
2018-09-15T23:23:03.928Z,11.80
2018-09-15T23:25:34.012Z,11.80
2018-09-15T23:28:04.057Z,11.80
2018-09-15T23:30:34.252Z,11.80
2018-09-15T23:33:04.733Z,11.80
2018-09-15T23:35:34.940Z,11.80
2018-09-15T23:38:05.056Z,11.70
2018-09-15T23:40:35.157Z,11.80
2018-09-15T23:43:05.260Z,11.70
2018-09-15T23:45:35.360Z,11.70
2018-09-15T23:48:05.424Z,11.70
2018-09-15T23:50:35.504Z,11.70
2018-09-15T23:53:05.709Z,11.70
2018-09-15T23:55:35.792Z,11.70
2018-09-15T23:58:06.412Z,11.60
